Share

Ashley, ND

RAWS SAND LAKE SD US (MLLKS2) Elev 2029 ft | 45.88 °N, 99.41 °W | Change Station

Current weather conditions updated 48 minutes ago

Overcast
Overcast
45 °F
Feels Like 39 °F
N
13
Wind Variable Wind from SE
Gusts 23.0 mph
Sunrise 6:47 AM
Sunset 8:27 PM
Moon Waning Gibbous

Tomorrow is forecast to be Much Warmer than today.

Pressure 30.16 in
Visibility 10.0 miles
Clouds Overcast 5000 ft
Windchill 39 °F
Dew Point 16 °F
Humidity 31%
Rainfall 0.00 in
Snow Depth Not available.
UV 1 out of 16
Pollen 7.60 out of 12
Air Quality Not available.
Flu Activity Sporadic
METAR K7L2 172255Z AUTO 18014G18KT 10SM OVC050 07/M06 A3016 RMK AO2 PWINO PNO

More Conditions Fewer Conditions

Pressure 30.16 in
Visibility 10.0 miles
Clouds Overcast 5000 ft
Windchill 39 °F
Dew Point 16 °F
Humidity 31%
Rainfall 0.00 in
Snow Depth Not available.
UV 1 out of 16
Pollen 7.60 out of 12
Air Quality Not available.
Flu Activity Sporadic
METAR K7L2 172255Z AUTO 18014G18KT 10SM OVC050 07/M06 A3016 RMK AO2 PWINO PNO

More Conditions Fewer Conditions

10-Day Forecast

Almanac

Astronomy

Apr. 17, 2014 Rise Set
Actual Time 6:47 AM CDT 8:27 PM CDT
Civil Twilight 6:16 AM CDT 8:58 PM CDT
Nautical Twilight 5:37 AM CDT 9:37 PM CDT
Astronomical Twilight 4:56 AM CDT 10:19 PM CDT
Moon 11:21 PM CDT 8:14 AM CDT
Length of Visible Light 14h 42m
Length of Day
13h 39m
Tomorrow will be 3m 6s longer.
Waning Gibbous, 92% of the Moon is Illuminated
Today
Waning Gibbous
Apr 22
Last Quarter
Apr 29
New
May 6
First Quarter
May 14
Full

Today's Extremes

State Highs State Lows

Community

  • Morning Light
    Morning Light
  • New Day
    New Day
  • Lake Michigan Sunrise
    Lake Michigan Sunrise
  • sunset from izmir, narlıdere
    sunset from izmir, narlıdere
  • oregon cherry
    oregon cherry

WunderPhotos

Upload Photos

1,702,159 photos uploaded!

WunderBlogs® & News

Nearby

Snow Depth

Station Depth Elevation
No new snow has been reported.

Coastal Water Temperatures

Place Temperature
No Stations Reporting

Earthquake Activity

City Distance Mag. Time & Date
No recent earthquake activity has been reported nearby.
Minimum magnitude displayed is 2.5.

Nearby Weather Stations

Station Location Temp. Windchill Dew Point Humidity Wind Precip. Elev Updated Type
RAWS SAND LAKE SD, Longlake, SD 45 °F 39 °F 16 °F 31% SE  at  13 mph 0.00 in / hr 2029 ft 5:15 PM CDT MADIS
Eureka, South Dakota, Eureka, SD 45.6 °F 41 °F 24 °F 43% South  at  9.0 mph 0.00 in / hr 1873 ft 5:59 PM CDT Normal

Show More Stations Show Fewer Stations

What do you think?

We're not finished. Please let us know what you like, what you don't like, and what you are still missing.